South English, IA (52335)

5:33 PM CDT on July 29, 2014 (GMT -0500)
Dietze Weather Station (KIAMILLE3) Elev 883 ft | 41.57 °N, 92.16 °W | Change Station

Current weather conditions updated 4 seconds ago

Clear
Clear
78.8 °F
Feels Like 80 °F
N
1.3
Wind Variable Wind from WNW
Gusts 2.0 mph

Tomorrow is forecast to be nearly the same temperature as today.

Today
High -- | Low -- °F
--% Chance of Precip.
Yesterday
High -- | Low -- °F
Precip. -- in
6:00 AM 8:28 PM
Waxing Crescent, 8% visible
Pressure 30.10 in
Visibility 10.0 miles
Clouds Clear
Heat Index 80 °F
Dew Point 61 °F
Humidity 55%
Rainfall 0.00 in
Snow Depth Not available.
UV 4 out of 12
Pollen 6.60 out of 12
Air Quality Not available.
Flu Activity Not available.
METAR KOOA 292215Z AUTO 33007KT 10SM CLR 25/15 A3010 RMK AO2 T02460146

More Conditions Fewer Conditions

Pressure 30.10 in
Visibility 10.0 miles
Clouds Clear
Heat Index 80 °F
Dew Point 61 °F
Humidity 55%
Rainfall 0.00 in
Snow Depth Not available.
UV 4 out of 12
Pollen 6.60 out of 12
Air Quality Not available.
Flu Activity Not available.
METAR KOOA 292215Z AUTO 33007KT 10SM CLR 25/15 A3010 RMK AO2 T02460146

More Conditions Fewer Conditions

10-Day Weather Forecast

Almanac

Astronomy

Jul. 29, 2014 Rise Set
Actual Time 6:00 AM CDT 8:28 PM CDT
Civil Twilight 5:28 AM CDT 9:00 PM CDT
Nautical Twilight 4:49 AM CDT 9:39 PM CDT
Astronomical Twilight 4:05 AM CDT 10:22 PM CDT
Moon 8:39 AM CDT 9:38 PM CDT
Length of Visible Light 15h 31m
Length of Day
14h 28m
Tomorrow will be 2m 1s shorter.
Waxing Crescent, 8% of the Moon is Illuminated
Today
Waxing Crescent
Aug 3
First Quarter
Aug 10
Full
Aug 17
Last Quarter
Aug 25
New

Today's Extremes

State Highs State Lows

Community

WunderPhotos

Upload Photos

1,738,907 photos uploaded!

Nearby

Snow Depth

Station Depth Elevation
No new snow has been reported.

Earthquake Activity

City Distance Mag. Time & Date
No recent earthquake activity has been reported nearby.
Minimum magnitude displayed is 2.5.

Coastal Water Temperatures

Place Temperature
No Stations Reporting

Nearby Weather Stations

Station Location Temp. Heat Index Dew Point Humidity Wind Precip. Elev Updated Type
Dietze Weather Station, Millersburg, IA 78.8 °F 80 °F 61 °F 55% WNW  at  1.3 mph 0.00 in / hr 883 ft 5:33 PM CDT Rapid Fire
Williamsburg, IA 77.0 °F 78 °F 51 °F 40% West  at  3.0 mph 0.00 in / hr 820 ft 5:32 PM CDT Rapid Fire
Downtown Kalona, Kalona, IA 78.1 °F 79 °F 56 °F 47% North  at  0.0 mph 0.00 in / hr 664 ft 5:33 PM CDT Rapid Fire

Show More Stations Show Fewer Stations